createdAt,value
2018-08-04T00:00:50.588Z,55.92
2018-08-04T00:01:51.380Z,55.85
2018-08-04T00:02:52.140Z,56.21
2018-08-04T00:03:52.910Z,56.08
2018-08-04T00:04:53.712Z,55.92
2018-08-04T00:05:54.491Z,55.98
2018-08-04T00:06:55.264Z,55.96
2018-08-04T00:07:56.038Z,56.25
2018-08-04T00:08:56.811Z,56.74
2018-08-04T00:09:57.614Z,56.93
2018-08-04T00:10:58.386Z,57.00
2018-08-04T00:11:59.227Z,57.27
2018-08-04T00:12:58.929Z,56.89
2018-08-04T00:14:00.709Z,56.86
2018-08-04T00:15:02.510Z,56.85
2018-08-04T00:16:02.284Z,56.76
2018-08-04T00:17:03.051Z,56.84
2018-08-04T00:18:03.917Z,57.10
2018-08-04T00:19:03.615Z,57.20
2018-08-04T00:20:05.410Z,57.51
2018-08-04T00:21:06.186Z,56.46
2018-08-04T00:22:06.958Z,56.79
2018-08-04T00:23:07.733Z,57.02
2018-08-04T00:24:08.502Z,56.75
2018-08-04T00:25:09.391Z,56.54
2018-08-04T00:26:09.091Z,56.35
2018-08-04T00:27:10.868Z,56.91
2018-08-04T00:28:11.640Z,56.79
2018-08-04T00:29:12.414Z,56.62
2018-08-04T00:30:13.216Z,56.75
2018-08-04T00:31:12.994Z,56.93
2018-08-04T00:32:14.768Z,56.43
2018-08-04T00:33:15.548Z,56.49
2018-08-04T00:34:16.318Z,56.65
2018-08-04T00:35:17.117Z,56.71
2018-08-04T00:36:17.890Z,57.39
2018-08-04T00:37:18.665Z,57.62
2018-08-04T00:38:19.438Z,56.84
2018-08-04T00:39:20.216Z,56.74
2018-08-04T00:40:21.009Z,57.18
2018-08-04T00:41:21.785Z,56.98
2018-08-04T00:42:22.555Z,57.30
2018-08-04T00:43:23.330Z,56.97
2018-08-04T00:44:24.102Z,57.13
2018-08-04T00:45:24.988Z,57.07
2018-08-04T00:46:24.687Z,57.19
2018-08-04T00:47:26.458Z,57.32
2018-08-04T00:48:27.229Z,57.40
2018-08-04T00:49:28.006Z,57.17
2018-08-04T00:50:28.807Z,57.26
2018-08-04T00:51:29.577Z,57.84
2018-08-04T00:52:30.452Z,58.09
2018-08-04T00:53:30.542Z,57.63
2018-08-04T00:54:33.902Z,57.83
2018-08-04T00:55:33.650Z,57.48
2018-08-04T00:56:32.908Z,57.40
2018-08-04T00:57:42.730Z,57.66
2018-08-04T00:58:43.497Z,57.67
2018-08-04T00:59:44.267Z,57.51
2018-08-04T01:00:45.063Z,57.78
2018-08-04T01:01:45.832Z,57.67
2018-08-04T01:02:46.614Z,57.68
2018-08-04T01:03:47.380Z,58.18
2018-08-04T01:04:48.152Z,58.12
2018-08-04T01:05:48.949Z,58.52
2018-08-04T01:06:49.718Z,58.62
2018-08-04T01:07:50.489Z,58.16
2018-08-04T01:08:51.272Z,58.11
2018-08-04T01:09:52.032Z,58.47
2018-08-04T01:10:52.830Z,58.38
2018-08-04T01:11:53.599Z,58.42
2018-08-04T01:12:54.378Z,58.38
2018-08-04T01:13:55.146Z,58.22
2018-08-04T01:14:55.931Z,58.61
2018-08-04T01:15:56.719Z,58.65
2018-08-04T01:16:57.501Z,58.32
2018-08-04T01:17:58.266Z,58.19
2018-08-04T01:18:59.040Z,58.31
2018-08-04T01:19:59.809Z,58.56
2018-08-04T01:21:00.608Z,58.42
2018-08-04T01:22:01.390Z,58.45
2018-08-04T01:23:02.159Z,58.38
2018-08-04T01:24:02.934Z,58.78
2018-08-04T01:25:03.710Z,59.28
2018-08-04T01:26:03.501Z,59.65
2018-08-04T01:27:05.272Z,59.32
2018-08-04T01:28:06.053Z,59.55
2018-08-04T01:29:06.817Z,60.21
2018-08-04T01:30:07.593Z,59.79
2018-08-04T01:31:08.402Z,59.21
2018-08-04T01:32:09.174Z,59.15
2018-08-04T01:33:09.945Z,59.01
2018-08-04T01:34:10.794Z,59.97
2018-08-04T01:35:11.488Z,60.22
2018-08-04T01:36:12.283Z,61.04
2018-08-04T01:37:13.056Z,61.65
2018-08-04T01:38:13.829Z,61.81
2018-08-04T01:39:14.611Z,61.05
2018-08-04T01:40:15.381Z,61.21
2018-08-04T01:41:16.190Z,61.21
2018-08-04T01:42:16.960Z,61.44
2018-08-04T01:43:17.735Z,61.44
2018-08-04T01:44:18.513Z,61.66
2018-08-04T01:45:19.282Z,61.86
2018-08-04T01:46:20.089Z,62.11
2018-08-04T01:47:20.862Z,62.22
2018-08-04T01:48:21.635Z,62.25
2018-08-04T01:49:22.408Z,62.46
2018-08-04T01:50:23.181Z,63.04
2018-08-04T01:51:23.986Z,63.19
2018-08-04T01:52:24.758Z,63.10
2018-08-04T01:53:25.533Z,63.52
2018-08-04T01:54:26.310Z,63.44
2018-08-04T01:55:27.084Z,63.34
2018-08-04T01:56:27.881Z,62.93
2018-08-04T01:57:28.651Z,62.67
2018-08-04T01:58:29.422Z,62.71
2018-08-04T01:59:29.284Z,62.69
2018-08-04T02:00:29.985Z,62.63
2018-08-04T02:01:31.783Z,62.54
2018-08-04T02:02:32.558Z,62.86
2018-08-04T02:03:33.331Z,62.52
2018-08-04T02:04:34.110Z,62.40
2018-08-04T02:05:34.882Z,62.15
2018-08-04T02:06:35.694Z,61.74
2018-08-04T02:07:36.455Z,61.59
2018-08-04T02:08:37.233Z,61.55
2018-08-04T02:09:38.004Z,61.68
2018-08-04T02:10:38.794Z,61.47
2018-08-04T02:11:39.586Z,61.67
2018-08-04T02:12:40.360Z,61.71
2018-08-04T02:13:41.136Z,62.02
2018-08-04T02:14:41.909Z,61.98
2018-08-04T02:15:42.686Z,61.81
2018-08-04T02:16:43.479Z,61.88
2018-08-04T02:17:44.262Z,62.20
2018-08-04T02:18:45.033Z,62.37
2018-08-04T02:19:45.807Z,62.48
2018-08-04T02:20:46.586Z,62.50
2018-08-04T02:21:47.381Z,62.79
2018-08-04T02:22:48.166Z,62.86
2018-08-04T02:23:48.931Z,62.71
2018-08-04T02:24:49.707Z,62.97
2018-08-04T02:25:50.480Z,62.88
2018-08-04T02:26:51.283Z,63.15
2018-08-04T02:27:52.057Z,62.92
2018-08-04T02:28:52.837Z,63.14
2018-08-04T02:29:53.605Z,63.52
2018-08-04T02:30:54.386Z,63.22
2018-08-04T02:31:55.183Z,63.33
2018-08-04T02:32:55.956Z,63.25
2018-08-04T02:33:56.740Z,62.79
2018-08-04T02:34:57.511Z,63.17
2018-08-04T02:35:58.285Z,63.16
2018-08-04T02:36:59.079Z,63.41
2018-08-04T02:37:59.852Z,63.45
2018-08-04T02:39:00.627Z,63.67
2018-08-04T02:40:01.416Z,63.50
2018-08-04T02:41:02.182Z,63.29
2018-08-04T02:42:02.982Z,62.97
2018-08-04T02:43:03.759Z,62.96
2018-08-04T02:44:04.537Z,63.38
2018-08-04T02:45:05.310Z,63.31
2018-08-04T02:46:06.083Z,63.76
2018-08-04T02:47:06.890Z,63.95
2018-08-04T02:48:09.184Z,64.29
2018-08-04T02:49:08.866Z,64.33
2018-08-04T02:57:53.079Z,65.00
2018-08-04T02:58:53.880Z,64.99
2018-08-04T02:59:54.645Z,65.12
2018-08-04T03:00:55.417Z,65.16
2018-08-04T03:01:56.194Z,65.35
2018-08-04T03:02:56.985Z,65.25
2018-08-04T03:03:57.759Z,65.13
2018-08-04T03:04:58.531Z,65.58
2018-08-04T03:05:59.311Z,65.29
2018-08-04T03:07:00.081Z,65.30
2018-08-04T03:08:01.334Z,65.05
2018-08-04T03:09:01.115Z,65.27
2018-08-04T03:10:01.896Z,65.18
2018-08-04T03:11:02.666Z,65.30
2018-08-04T03:12:03.432Z,64.83
2018-08-04T03:13:04.253Z,65.06
2018-08-04T03:14:04.006Z,64.86
2018-08-04T03:15:05.771Z,65.11
2018-08-04T03:16:06.545Z,65.27
2018-08-04T03:17:07.323Z,65.08
2018-08-04T03:18:08.119Z,64.77
2018-08-04T03:19:08.891Z,65.21
2018-08-04T03:20:09.671Z,65.30
2018-08-04T03:21:10.449Z,65.06
2018-08-04T03:22:11.225Z,64.92
2018-08-04T03:23:12.019Z,65.30
2018-08-04T03:24:15.987Z,65.59
2018-08-04T03:25:13.757Z,65.66
2018-08-04T03:26:14.532Z,65.57
2018-08-04T03:27:15.308Z,65.60
2018-08-04T03:28:16.099Z,65.87
2018-08-04T03:29:16.874Z,66.02
2018-08-04T03:30:17.648Z,66.08
2018-08-04T03:31:18.427Z,66.01
2018-08-04T03:32:19.196Z,66.12
2018-08-04T03:33:19.999Z,66.07
2018-08-04T03:34:20.777Z,66.32
2018-08-04T03:35:21.550Z,66.06
2018-08-04T03:36:22.322Z,66.40
2018-08-04T03:37:23.095Z,66.62
2018-08-04T03:38:24.171Z,66.94
2018-08-04T03:39:23.951Z,66.83
2018-08-04T03:40:24.717Z,66.75
2018-08-04T03:41:25.500Z,67.25
2018-08-04T03:42:26.267Z,67.33
2018-08-04T03:43:27.074Z,67.46
2018-08-04T03:44:27.838Z,67.43
2018-08-04T03:45:28.621Z,67.46
2018-08-04T03:46:29.384Z,67.56
2018-08-04T03:47:30.175Z,67.58
2018-08-04T03:48:30.957Z,67.61
2018-08-04T03:49:31.732Z,67.50
2018-08-04T03:50:32.504Z,67.61
2018-08-04T03:51:33.276Z,67.45
2018-08-04T03:52:34.057Z,67.61
2018-08-04T03:53:34.862Z,67.51
2018-08-04T03:54:35.631Z,67.58
2018-08-04T03:55:36.407Z,67.23
2018-08-04T03:56:37.181Z,67.10
2018-08-04T03:57:37.959Z,67.43
2018-08-04T03:58:38.754Z,67.43
2018-08-04T03:59:39.547Z,67.74
2018-08-04T04:00:39.310Z,67.69
2018-08-04T04:01:40.082Z,67.86
2018-08-04T04:02:41.855Z,67.44
2018-08-04T04:03:42.657Z,67.55
2018-08-04T04:04:42.434Z,68.09
2018-08-04T04:05:44.206Z,68.38
2018-08-04T04:06:45.004Z,68.37
2018-08-04T04:07:44.754Z,68.14
2018-08-04T04:08:46.558Z,68.01
2018-08-04T04:09:47.326Z,67.86
2018-08-04T04:10:48.103Z,67.97
2018-08-04T04:11:48.871Z,68.21
2018-08-04T04:12:48.650Z,68.23
2018-08-04T04:13:50.450Z,67.96
2018-08-04T04:14:51.225Z,67.96
2018-08-04T04:15:51.995Z,67.82
2018-08-04T04:16:52.766Z,67.72
2018-08-04T04:17:53.540Z,68.26
2018-08-04T04:18:54.334Z,68.18
2018-08-04T04:19:55.108Z,68.20
2018-08-04T04:20:55.890Z,68.21
2018-08-04T04:21:56.658Z,68.54
2018-08-04T04:22:57.427Z,68.24
2018-08-04T04:23:58.232Z,68.32
2018-08-04T04:24:59.002Z,68.63
2018-08-04T04:25:59.785Z,68.31
2018-08-04T04:27:00.555Z,68.68
2018-08-04T04:28:01.329Z,68.70
2018-08-04T04:29:02.134Z,68.72
2018-08-04T04:30:02.904Z,69.12
2018-08-04T04:31:03.681Z,69.31
2018-08-04T04:32:04.453Z,69.57
2018-08-04T04:33:05.231Z,69.65
2018-08-04T04:34:06.030Z,69.56
2018-08-04T04:35:06.800Z,69.38
2018-08-04T04:36:07.576Z,69.30
2018-08-04T04:37:08.348Z,69.33
2018-08-04T04:38:09.122Z,69.12
2018-08-04T04:39:09.915Z,69.38
2018-08-04T04:40:10.690Z,69.13
2018-08-04T04:41:11.462Z,69.51
2018-08-04T04:42:12.235Z,69.24
2018-08-04T04:43:13.008Z,69.10
2018-08-04T04:44:13.805Z,68.98
2018-08-04T04:45:14.577Z,68.62
2018-08-04T04:46:15.356Z,68.76
2018-08-04T04:47:16.130Z,69.15
2018-08-04T04:48:16.905Z,69.23
2018-08-04T04:49:17.701Z,69.25
2018-08-04T04:50:18.836Z,69.47
2018-08-04T05:00:57.499Z,68.58
2018-08-04T05:01:58.320Z,68.63
2018-08-04T05:02:58.042Z,68.79
2018-08-04T05:03:59.812Z,68.49
2018-08-04T05:05:00.610Z,68.72
2018-08-04T05:06:01.380Z,68.42
2018-08-04T05:07:02.158Z,68.20
2018-08-04T05:08:02.923Z,67.89
2018-08-04T05:09:03.694Z,67.76
2018-08-04T05:10:04.491Z,67.43
2018-08-04T05:11:05.261Z,67.33
2018-08-04T05:12:06.043Z,67.07
2018-08-04T05:13:06.809Z,66.94
2018-08-04T05:14:07.583Z,67.01
2018-08-04T05:15:08.381Z,66.86
2018-08-04T05:16:08.156Z,67.06
2018-08-04T05:17:09.927Z,67.27
2018-08-04T05:18:10.705Z,67.39
2018-08-04T05:19:11.472Z,67.58
2018-08-04T05:20:12.267Z,67.03
2018-08-04T05:21:13.041Z,67.07
2018-08-04T05:22:13.811Z,67.16
2018-08-04T05:23:14.588Z,66.97
2018-08-04T05:24:15.365Z,67.24
2018-08-04T05:25:16.164Z,66.68
2018-08-04T05:26:16.936Z,66.43
2018-08-04T05:27:17.710Z,67.02
2018-08-04T05:28:18.485Z,66.90
2018-08-04T05:29:19.264Z,66.65
2018-08-04T05:30:20.063Z,66.71
2018-08-04T05:31:20.836Z,66.30
2018-08-04T05:32:21.612Z,66.33
2018-08-04T05:33:21.386Z,66.29
2018-08-04T05:34:22.164Z,66.24
2018-08-04T05:35:23.960Z,65.92
2018-08-04T05:36:24.744Z,65.77
2018-08-04T05:37:25.584Z,66.09
2018-08-04T05:38:25.289Z,66.19
2018-08-04T05:39:27.061Z,65.82
2018-08-04T05:40:27.863Z,65.78
2018-08-04T05:41:28.639Z,65.81
2018-08-04T05:42:29.415Z,66.31
2018-08-04T05:43:30.317Z,66.42
2018-08-04T05:44:29.960Z,66.34
2018-08-04T05:45:31.762Z,66.31
2018-08-04T05:46:32.534Z,66.31
2018-08-04T05:47:33.316Z,66.82
2018-08-04T05:48:34.090Z,66.50
2018-08-04T05:49:34.867Z,66.95
2018-08-04T05:50:35.666Z,67.15
2018-08-04T05:51:36.441Z,66.75
2018-08-04T05:52:37.220Z,66.48
2018-08-04T05:53:37.991Z,67.08
2018-08-04T05:54:38.769Z,67.08
2018-08-04T05:55:39.620Z,67.19
2018-08-04T05:56:39.340Z,66.73
2018-08-04T05:57:41.113Z,66.68
2018-08-04T05:58:41.884Z,66.66
2018-08-04T05:59:42.657Z,66.48
2018-08-04T06:00:43.456Z,66.21
2018-08-04T06:01:44.225Z,66.27
2018-08-04T06:02:44.999Z,66.14
2018-08-04T06:03:45.768Z,65.75
2018-08-04T06:04:46.558Z,65.82
2018-08-04T06:05:47.349Z,65.97
2018-08-04T06:06:48.122Z,66.03
2018-08-04T06:07:48.898Z,65.77
2018-08-04T06:08:49.670Z,64.77
2018-08-04T06:09:50.441Z,63.94
2018-08-04T06:10:51.237Z,63.00
2018-08-04T06:11:52.012Z,62.42
2018-08-04T06:12:52.798Z,61.03
2018-08-04T06:13:53.562Z,60.34
2018-08-04T06:14:54.331Z,59.44
2018-08-04T06:15:55.133Z,58.98
2018-08-04T06:16:55.901Z,58.37
2018-08-04T06:17:56.763Z,57.34
2018-08-04T06:18:56.463Z,56.78
2018-08-04T06:19:58.237Z,56.00
2018-08-04T06:20:59.047Z,54.59
2018-08-04T06:21:59.852Z,54.59
2018-08-04T06:22:59.584Z,53.81
2018-08-04T06:24:01.355Z,53.54
2018-08-04T06:25:02.129Z,52.99
2018-08-04T06:26:02.923Z,52.67
2018-08-04T06:27:03.698Z,52.95
2018-08-04T06:28:04.467Z,52.33
2018-08-04T06:29:05.245Z,51.67
2018-08-04T06:30:06.018Z,51.26
2018-08-04T06:31:06.811Z,50.26
2018-08-04T06:32:07.596Z,50.01
2018-08-04T06:33:08.363Z,49.41
2018-08-04T06:34:09.137Z,48.90
2018-08-04T06:35:09.914Z,49.29
2018-08-04T06:36:10.713Z,48.67
2018-08-04T06:37:11.486Z,48.77
2018-08-04T06:38:12.260Z,49.31
2018-08-04T06:39:13.036Z,50.11
2018-08-04T06:40:13.820Z,50.17
2018-08-04T06:41:14.616Z,50.15
2018-08-04T06:42:15.392Z,50.12
2018-08-04T06:43:16.167Z,49.89
2018-08-04T06:44:16.942Z,48.80
2018-08-04T06:45:17.713Z,47.51
2018-08-04T06:46:18.510Z,47.18
2018-08-04T06:47:19.285Z,46.52
2018-08-04T06:48:20.056Z,45.19
2018-08-04T06:49:20.831Z,44.90
2018-08-04T06:50:21.604Z,44.68
2018-08-04T06:51:22.398Z,43.68
2018-08-04T06:52:23.172Z,42.89
2018-08-04T06:53:23.945Z,42.28
2018-08-04T06:54:23.715Z,41.65
2018-08-04T06:55:25.491Z,41.98
2018-08-04T06:56:26.667Z,41.27
2018-08-04T06:57:26.849Z,40.51
2018-08-04T06:58:35.556Z,41.83
2018-08-04T06:59:36.325Z,41.88
2018-08-04T07:00:37.098Z,41.93
2018-08-04T07:01:37.895Z,41.55
2018-08-04T07:02:38.673Z,41.32
2018-08-04T07:03:39.444Z,40.56
2018-08-04T07:04:40.230Z,39.44
2018-08-04T07:05:41.000Z,39.22
2018-08-04T07:06:41.795Z,39.19
2018-08-04T07:07:42.566Z,38.49
2018-08-04T07:08:43.341Z,38.73
2018-08-04T07:09:44.111Z,38.04
2018-08-04T07:10:44.884Z,37.55
2018-08-04T07:11:45.707Z,37.28
2018-08-04T07:12:46.486Z,36.96
2018-08-04T07:13:47.273Z,36.73
2018-08-04T07:14:47.024Z,36.54
2018-08-04T07:15:48.798Z,36.08
2018-08-04T07:16:49.594Z,35.76
2018-08-04T07:17:50.369Z,36.19
2018-08-04T07:18:51.147Z,35.60
2018-08-04T07:19:51.915Z,34.93
2018-08-04T07:20:52.690Z,34.16
2018-08-04T07:21:53.484Z,33.69
2018-08-04T07:22:54.327Z,32.97
2018-08-04T07:23:54.031Z,32.11
2018-08-04T07:24:55.814Z,32.45
2018-08-04T07:25:56.578Z,33.33
2018-08-04T07:26:57.391Z,32.95
2018-08-04T07:27:58.150Z,32.93
2018-08-04T07:28:58.950Z,31.82
2018-08-04T07:29:58.697Z,32.03
2018-08-04T07:31:00.470Z,31.96
2018-08-04T07:32:01.269Z,31.92
2018-08-04T07:33:02.045Z,32.71
2018-08-04T07:34:02.813Z,32.01
2018-08-04T07:35:02.586Z,32.03
2018-08-04T07:36:04.356Z,31.98
2018-08-04T07:37:05.159Z,32.11
2018-08-04T07:38:05.925Z,32.83
2018-08-04T07:39:06.700Z,31.86
2018-08-04T07:40:07.472Z,31.95
2018-08-04T07:41:08.249Z,32.67
2018-08-04T07:42:09.046Z,32.53
2018-08-04T07:43:09.824Z,32.53
2018-08-04T07:44:10.600Z,32.33
2018-08-04T07:45:10.367Z,32.60
2018-08-04T07:46:12.144Z,32.95
2018-08-04T07:47:12.943Z,32.79
2018-08-04T07:48:13.714Z,33.36
2018-08-04T07:49:14.573Z,33.08
2018-08-04T07:50:14.261Z,33.45
2018-08-04T07:51:16.033Z,34.05
2018-08-04T07:52:16.837Z,34.50
2018-08-04T07:53:17.694Z,34.62
2018-08-04T07:54:17.395Z,34.88
2018-08-04T07:55:19.175Z,33.82
2018-08-04T07:56:19.945Z,33.94
2018-08-04T07:57:20.747Z,34.23
2018-08-04T07:58:21.515Z,34.81
2018-08-04T07:59:22.329Z,35.41
2018-08-04T08:00:22.062Z,36.06
2018-08-04T08:01:23.834Z,36.11
2018-08-04T08:02:24.635Z,36.36
2018-08-04T08:03:25.404Z,37.29
2018-08-04T08:04:26.186Z,37.65
2018-08-04T08:05:26.954Z,37.16
2018-08-04T08:06:27.725Z,37.54
2018-08-04T08:07:28.522Z,37.89
2018-08-04T08:08:29.294Z,38.34
2018-08-04T08:09:30.073Z,38.61
2018-08-04T08:10:30.922Z,38.93
2018-08-04T08:11:30.617Z,39.15
2018-08-04T08:12:32.415Z,39.52
2018-08-04T08:13:33.188Z,40.26
2018-08-04T08:14:33.959Z,40.64
2018-08-04T08:15:34.747Z,40.79
2018-08-04T08:16:35.518Z,41.06
2018-08-04T08:17:36.318Z,41.65
2018-08-04T08:18:37.095Z,42.46
2018-08-04T08:19:37.864Z,42.44
2018-08-04T08:20:38.646Z,42.61
2018-08-04T08:21:39.416Z,42.45
2018-08-04T08:22:40.218Z,43.29
2018-08-04T08:23:40.989Z,43.49
2018-08-04T08:24:41.769Z,43.59
2018-08-04T08:25:42.534Z,43.87
2018-08-04T08:26:43.317Z,44.38
2018-08-04T08:27:44.105Z,44.29
2018-08-04T08:28:44.877Z,44.60
2018-08-04T08:29:45.652Z,43.99
2018-08-04T08:30:46.421Z,44.09
2018-08-04T08:31:47.194Z,44.08
2018-08-04T08:32:47.989Z,43.95
2018-08-04T08:33:49.759Z,43.66
2018-08-04T08:34:49.535Z,43.06
2018-08-04T08:35:50.308Z,42.84
2018-08-04T08:36:51.087Z,42.35
2018-08-04T08:37:51.871Z,41.84
2018-08-04T08:38:52.643Z,41.29
2018-08-04T08:39:53.418Z,40.24
2018-08-04T08:40:54.192Z,40.15
2018-08-04T08:41:54.967Z,40.71
2018-08-04T08:42:55.764Z,39.86
2018-08-04T08:43:56.537Z,39.88
2018-08-04T08:44:57.307Z,39.75
2018-08-04T08:45:58.080Z,39.76
2018-08-04T08:46:58.852Z,39.54
2018-08-04T08:47:59.648Z,39.24
2018-08-04T08:49:00.421Z,38.35
2018-08-04T08:50:01.197Z,37.73
2018-08-04T08:51:01.963Z,37.84
2018-08-04T08:52:02.735Z,37.57
2018-08-04T08:53:04.944Z,37.47
2018-08-04T08:54:04.256Z,37.29
2018-08-04T08:55:03.272Z,37.76
2018-08-04T08:56:03.463Z,37.56
2018-08-04T08:59:18.091Z,37.04
2018-08-04T09:00:19.841Z,37.10
2018-08-04T09:01:19.673Z,36.32
2018-08-04T09:02:19.383Z,36.45
2018-08-04T09:03:21.244Z,36.36
2018-08-04T09:04:20.967Z,36.78
2018-08-04T09:05:22.735Z,36.91
2018-08-04T09:06:23.509Z,36.34
2018-08-04T09:07:24.276Z,37.71
2018-08-04T09:08:25.049Z,38.10
2018-08-04T09:09:25.846Z,37.91
2018-08-04T09:10:26.619Z,38.12
2018-08-04T09:11:27.390Z,37.39
2018-08-04T09:12:28.161Z,37.60
2018-08-04T09:13:28.933Z,36.83
2018-08-04T09:14:29.728Z,36.55
2018-08-04T09:15:30.507Z,36.63
2018-08-04T09:16:31.279Z,36.39
2018-08-04T09:17:32.049Z,35.62
2018-08-04T09:18:33.068Z,35.97
2018-08-04T09:19:32.787Z,35.30
2018-08-04T09:20:34.563Z,35.65
2018-08-04T09:21:35.332Z,35.85
2018-08-04T09:22:36.106Z,36.15
2018-08-04T09:23:36.875Z,36.42
2018-08-04T09:24:37.674Z,36.40
2018-08-04T09:25:38.449Z,36.63
2018-08-04T09:26:39.221Z,36.66
2018-08-04T09:27:39.993Z,37.17
2018-08-04T09:28:40.767Z,37.92
2018-08-04T09:29:41.565Z,37.94
2018-08-04T09:30:42.390Z,37.71
2018-08-04T09:31:42.111Z,37.77
2018-08-04T09:32:43.894Z,37.75
2018-08-04T09:33:44.658Z,37.90
2018-08-04T09:34:45.453Z,38.77
2018-08-04T09:35:46.223Z,38.69
2018-08-04T09:36:46.998Z,38.54
2018-08-04T09:37:47.772Z,38.17
2018-08-04T09:38:48.547Z,38.74
2018-08-04T09:39:50.351Z,37.23
2018-08-04T09:40:50.124Z,37.83
2018-08-04T09:41:50.896Z,37.62
2018-08-04T09:42:51.675Z,37.62
2018-08-04T09:43:52.446Z,37.67
2018-08-04T09:44:53.248Z,37.65
2018-08-04T09:45:54.019Z,35.68
2018-08-04T09:46:54.798Z,36.31
2018-08-04T09:47:55.569Z,36.42
2018-08-04T09:48:56.350Z,36.56
2018-08-04T09:49:57.144Z,36.87
2018-08-04T09:50:57.918Z,37.30
2018-08-04T09:51:58.693Z,36.96
2018-08-04T09:52:59.462Z,36.85
2018-08-04T09:54:00.239Z,37.07
2018-08-04T09:55:01.032Z,36.95
2018-08-04T09:56:01.802Z,37.21
2018-08-04T09:57:02.577Z,36.78
2018-08-04T09:58:03.348Z,36.34
2018-08-04T09:59:04.119Z,36.17
2018-08-04T10:00:04.926Z,36.87
2018-08-04T10:01:05.697Z,36.80
2018-08-04T10:02:06.475Z,36.72
2018-08-04T10:03:07.248Z,36.90
2018-08-04T10:04:08.025Z,36.89
2018-08-04T10:05:08.867Z,36.69
2018-08-04T10:06:08.596Z,36.89
2018-08-04T10:07:10.367Z,36.51
2018-08-04T10:08:11.140Z,36.02
2018-08-04T10:09:11.913Z,36.73
2018-08-04T10:10:12.797Z,36.77
2018-08-04T10:11:12.497Z,36.30
2018-08-04T10:12:13.265Z,37.11
2018-08-04T10:13:15.039Z,36.78
2018-08-04T10:14:15.825Z,36.95
2018-08-04T10:15:16.612Z,36.83
2018-08-04T10:16:17.477Z,36.77
2018-08-04T10:17:17.344Z,36.50
2018-08-04T10:18:18.039Z,36.01
2018-08-04T10:19:19.809Z,36.09
2018-08-04T10:20:20.717Z,36.25
2018-08-04T10:21:20.375Z,36.23
2018-08-04T10:22:22.148Z,36.20
2018-08-04T10:23:22.923Z,36.39
2018-08-04T10:24:23.691Z,36.14
2018-08-04T10:25:24.705Z,35.28
2018-08-04T10:26:24.433Z,36.27
2018-08-04T10:27:26.205Z,36.33
2018-08-04T10:28:26.975Z,35.64
2018-08-04T10:29:27.750Z,35.55
2018-08-04T10:30:28.871Z,35.85
2018-08-04T10:31:27.796Z,35.61
2018-08-04T10:32:28.585Z,35.25
2018-08-04T10:33:29.261Z,35.64
2018-08-04T10:34:31.034Z,35.73
2018-08-04T10:35:31.830Z,35.68
2018-08-04T10:36:31.603Z,35.51
2018-08-04T10:37:33.381Z,36.10
2018-08-04T10:38:34.209Z,35.92
2018-08-04T10:39:33.930Z,36.10
2018-08-04T10:40:35.728Z,36.17
2018-08-04T10:41:35.505Z,36.78
2018-08-04T10:42:37.268Z,37.07
2018-08-04T10:43:38.043Z,37.04
2018-08-04T10:44:38.815Z,36.65
2018-08-04T10:45:39.614Z,36.44
2018-08-04T10:46:40.384Z,36.10
2018-08-04T10:47:41.161Z,36.45
2018-08-04T10:48:41.934Z,35.83
2018-08-04T10:49:42.710Z,36.85
2018-08-04T10:50:43.537Z,36.52
2018-08-04T10:51:44.293Z,36.17
2018-08-04T10:52:45.067Z,36.04
2018-08-04T10:53:45.841Z,35.90
2018-08-04T10:54:46.610Z,35.92
2018-08-04T10:55:47.414Z,36.09
2018-08-04T10:56:48.186Z,36.54
2018-08-04T10:57:48.973Z,36.85
2018-08-04T10:58:49.737Z,37.05
2018-08-04T10:59:50.517Z,37.06
2018-08-04T11:00:51.689Z,36.43
2018-08-04T11:07:41.988Z,34.26
2018-08-04T11:08:42.759Z,34.09
2018-08-04T11:09:43.537Z,33.75
2018-08-04T11:10:44.303Z,33.37
2018-08-04T11:11:45.095Z,33.43
2018-08-04T11:12:45.867Z,32.71
2018-08-04T11:13:46.640Z,31.95
2018-08-04T11:14:47.416Z,32.24
2018-08-04T11:15:48.194Z,32.71
2018-08-04T11:16:48.992Z,32.43
2018-08-04T11:17:49.761Z,32.87
2018-08-04T11:18:50.534Z,33.12
2018-08-04T11:19:51.306Z,33.00
2018-08-04T11:20:52.093Z,32.85
2018-08-04T11:21:52.889Z,32.63
2018-08-04T11:22:53.661Z,32.31
2018-08-04T11:23:54.444Z,32.39
2018-08-04T11:24:55.211Z,32.83
2018-08-04T11:25:55.993Z,33.03
2018-08-04T11:26:56.784Z,32.90
2018-08-04T11:27:57.559Z,33.25
2018-08-04T11:28:58.337Z,32.58
2018-08-04T11:29:59.103Z,33.09
2018-08-04T11:30:59.950Z,33.56
2018-08-04T11:31:59.674Z,32.99
2018-08-04T11:33:01.449Z,32.76
2018-08-04T11:34:02.217Z,32.20
2018-08-04T11:35:02.991Z,32.17
2018-08-04T11:36:03.761Z,32.00
2018-08-04T11:37:04.569Z,31.74
2018-08-04T11:38:05.336Z,31.90
2018-08-04T11:39:06.131Z,31.63
2018-08-04T11:40:06.885Z,31.49
2018-08-04T11:41:07.664Z,31.66
2018-08-04T11:42:08.459Z,32.41
2018-08-04T11:43:09.234Z,32.31
2018-08-04T11:44:10.006Z,32.68
2018-08-04T11:45:10.779Z,32.78
2018-08-04T11:46:11.553Z,32.27
2018-08-04T11:47:12.362Z,32.53
2018-08-04T11:48:13.138Z,32.26
2018-08-04T11:49:13.911Z,32.32
2018-08-04T11:50:14.717Z,32.13
2018-08-04T11:51:14.465Z,32.34
2018-08-04T11:52:16.263Z,31.96
2018-08-04T11:53:17.043Z,31.86
2018-08-04T11:54:16.809Z,31.72
2018-08-04T11:55:18.589Z,31.08
2018-08-04T11:56:19.362Z,31.21
2018-08-04T11:57:20.167Z,31.41
2018-08-04T11:58:20.987Z,31.80
2018-08-04T11:59:20.718Z,32.07
2018-08-04T12:00:22.489Z,31.90
2018-08-04T12:01:23.262Z,31.66
2018-08-04T12:02:24.062Z,31.57
2018-08-04T12:03:24.831Z,31.87
2018-08-04T12:04:25.609Z,31.61
2018-08-04T12:05:26.484Z,31.66
2018-08-04T12:06:26.167Z,31.58
2018-08-04T12:07:28.060Z,31.62
2018-08-04T12:08:27.747Z,31.40
2018-08-04T12:09:29.520Z,31.65
2018-08-04T12:10:30.290Z,31.63
2018-08-04T12:11:31.065Z,31.11
2018-08-04T12:12:31.860Z,31.27
2018-08-04T12:13:32.633Z,31.84
2018-08-04T12:14:33.407Z,31.50
2018-08-04T12:15:34.181Z,31.77
2018-08-04T12:16:34.957Z,31.97
2018-08-04T12:17:35.750Z,31.90
2018-08-04T12:18:36.524Z,31.80
2018-08-04T12:19:37.299Z,31.02
2018-08-04T12:20:38.166Z,30.89
2018-08-04T12:21:37.857Z,31.54
2018-08-04T12:22:39.654Z,31.78
2018-08-04T12:23:40.426Z,31.83
2018-08-04T12:24:41.203Z,32.01
2018-08-04T12:25:41.971Z,31.99
2018-08-04T12:26:42.753Z,32.03
2018-08-04T12:27:43.544Z,32.33
2018-08-04T12:28:44.316Z,31.85
2018-08-04T12:29:45.093Z,32.25
2018-08-04T12:30:45.860Z,31.69
2018-08-04T12:31:46.637Z,31.82
2018-08-04T12:32:47.428Z,31.80
2018-08-04T12:33:48.205Z,31.60
2018-08-04T12:34:48.975Z,31.52
2018-08-04T12:35:49.746Z,31.49
2018-08-04T12:36:50.517Z,31.32
2018-08-04T12:37:51.315Z,31.63
2018-08-04T12:38:52.090Z,31.21
2018-08-04T12:39:52.860Z,31.53
2018-08-04T12:40:53.639Z,31.71
2018-08-04T12:41:54.408Z,31.04
2018-08-04T12:42:55.216Z,30.88
2018-08-04T12:43:55.985Z,30.87
2018-08-04T12:44:56.766Z,30.91
2018-08-04T12:45:57.535Z,31.17
2018-08-04T12:46:58.309Z,31.55
2018-08-04T12:47:59.112Z,31.12
2018-08-04T12:48:59.886Z,31.15
2018-08-04T12:50:00.662Z,30.62
2018-08-04T12:51:01.440Z,31.06
2018-08-04T12:52:02.220Z,31.08
2018-08-04T12:53:03.018Z,31.36
2018-08-04T12:54:03.784Z,31.32
2018-08-04T12:55:04.555Z,30.50
2018-08-04T12:56:05.344Z,30.68
2018-08-04T12:57:06.116Z,31.05
2018-08-04T12:58:06.914Z,31.00
2018-08-04T12:59:07.686Z,30.87
2018-08-04T13:00:08.472Z,30.96
2018-08-04T13:01:09.612Z,30.23
2018-08-04T13:08:01.694Z,29.77
2018-08-04T13:09:02.492Z,29.20
2018-08-04T13:10:03.262Z,29.29
2018-08-04T13:11:04.036Z,29.14
2018-08-04T13:12:04.863Z,29.04
2018-08-04T13:13:04.579Z,28.60
2018-08-04T13:14:06.383Z,28.51
2018-08-04T13:15:07.153Z,29.18
2018-08-04T13:16:06.925Z,29.17
2018-08-04T13:17:08.697Z,29.80
2018-08-04T13:18:09.469Z,28.94
2018-08-04T13:19:10.269Z,28.44
2018-08-04T13:20:11.130Z,28.30
2018-08-04T13:21:10.825Z,27.81
2018-08-04T13:22:12.601Z,27.88
2018-08-04T13:23:13.370Z,27.90
2018-08-04T13:24:14.164Z,28.38
2018-08-04T13:25:14.935Z,28.14
2018-08-04T13:26:15.711Z,28.33
2018-08-04T13:27:16.484Z,28.01
2018-08-04T13:28:17.257Z,28.27
2018-08-04T13:29:18.055Z,28.20
2018-08-04T13:30:18.837Z,28.36
2018-08-04T13:31:19.599Z,28.32
2018-08-04T13:32:20.370Z,28.40
2018-08-04T13:33:21.144Z,28.07
2018-08-04T13:34:21.948Z,28.67